sensor_id;sensor_type;location;lat;lon;timestamp;pressure;altitude;pressure_sealevel;temperature;humidity
31538;BME280;18147;51.952;6.146;2023-11-18T00:01:32;102365.13;;;5.01;100.00
31538;BME280;18147;51.952;6.146;2023-11-18T00:03:58;102363.28;;;5.08;100.00
31538;BME280;18147;51.952;6.146;2023-11-18T00:06:24;102354.44;;;5.09;100.00
31538;BME280;18147;51.952;6.146;2023-11-18T00:08:50;102350.06;;;5.08;100.00
31538;BME280;18147;51.952;6.146;2023-11-18T00:11:16;102348.16;;;5.16;100.00
31538;BME280;18147;51.952;6.146;2023-11-18T00:13:41;102354.31;;;5.18;100.00
31538;BME280;18147;51.952;6.146;2023-11-18T00:16:10;102357.78;;;5.20;100.00
31538;BME280;18147;51.952;6.146;2023-11-18T00:18:42;102358.63;;;5.24;100.00
31538;BME280;18147;51.952;6.146;2023-11-18T00:21:08;102361.13;;;5.31;100.00
31538;BME280;18147;51.952;6.146;2023-11-18T00:23:34;102361.03;;;5.36;100.00
31538;BME280;18147;51.952;6.146;2023-11-18T00:25:59;102356.94;;;5.18;100.00
31538;BME280;18147;51.952;6.146;2023-11-18T00:28:25;102356.09;;;5.17;100.00
31538;BME280;18147;51.952;6.146;2023-11-18T00:30:50;102357.75;;;5.22;100.00
31538;BME280;18147;51.952;6.146;2023-11-18T00:33:16;102363.84;;;5.27;100.00
31538;BME280;18147;51.952;6.146;2023-11-18T00:35:43;102358.41;;;5.36;100.00
31538;BME280;18147;51.952;6.146;2023-11-18T00:38:10;102367.13;;;5.42;100.00
31538;BME280;18147;51.952;6.146;2023-11-18T00:40:36;102367.91;;;5.48;100.00
31538;BME280;18147;51.952;6.146;2023-11-18T00:43:01;102363.59;;;5.40;100.00
31538;BME280;18147;51.952;6.146;2023-11-18T00:45:28;102355.47;;;5.51;100.00
31538;BME280;18147;51.952;6.146;2023-11-18T00:47:54;102362.47;;;5.55;100.00
31538;BME280;18147;51.952;6.146;2023-11-18T00:50:19;102358.88;;;5.59;100.00
31538;BME280;18147;51.952;6.146;2023-11-18T00:52:45;102354.69;;;5.48;100.00
31538;BME280;18147;51.952;6.146;2023-11-18T00:55:16;102365.06;;;5.57;100.00
31538;BME280;18147;51.952;6.146;2023-11-18T00:57:45;102357.06;;;5.63;100.00
31538;BME280;18147;51.952;6.146;2023-11-18T01:00:15;102364.09;;;5.64;100.00
31538;BME280;18147;51.952;6.146;2023-11-18T01:02:48;102356.06;;;5.68;100.00
31538;BME280;18147;51.952;6.146;2023-11-18T01:05:15;102360.41;;;5.71;100.00
31538;BME280;18147;51.952;6.146;2023-11-18T01:07:40;102355.97;;;5.73;100.00
31538;BME280;18147;51.952;6.146;2023-11-18T01:10:07;102363.84;;;5.76;100.00
31538;BME280;18147;51.952;6.146;2023-11-18T01:12:35;102357.75;;;5.72;100.00
31538;BME280;18147;51.952;6.146;2023-11-18T01:15:04;102361.63;;;5.53;100.00
31538;BME280;18147;51.952;6.146;2023-11-18T01:17:31;102379.00;;;5.66;100.00
31538;BME280;18147;51.952;6.146;2023-11-18T01:19:57;102384.22;;;5.71;100.00
31538;BME280;18147;51.952;6.146;2023-11-18T01:22:24;102381.66;;;5.66;100.00
31538;BME280;18147;51.952;6.146;2023-11-18T01:24:49;102368.59;;;5.59;100.00
31538;BME280;18147;51.952;6.146;2023-11-18T01:27:16;102378.47;;;5.49;100.00
31538;BME280;18147;51.952;6.146;2023-11-18T01:29:44;102381.28;;;5.38;100.00
31538;BME280;18147;51.952;6.146;2023-11-18T01:32:12;102383.31;;;5.23;100.00
31538;BME280;18147;51.952;6.146;2023-11-18T01:34:40;102388.84;;;5.07;100.00
31538;BME280;18147;51.952;6.146;2023-11-18T01:37:06;102392.59;;;4.91;100.00
31538;BME280;18147;51.952;6.146;2023-11-18T01:39:34;102393.53;;;4.88;100.00
31538;BME280;18147;51.952;6.146;2023-11-18T01:42:00;102392.72;;;4.82;100.00
31538;BME280;18147;51.952;6.146;2023-11-18T01:44:26;102389.28;;;4.78;100.00
31538;BME280;18147;51.952;6.146;2023-11-18T01:46:57;102385.84;;;4.72;100.00
31538;BME280;18147;51.952;6.146;2023-11-18T01:49:24;102392.03;;;4.71;100.00
31538;BME280;18147;51.952;6.146;2023-11-18T01:51:53;102385.94;;;4.67;100.00
31538;BME280;18147;51.952;6.146;2023-11-18T01:54:19;102388.47;;;4.72;100.00
31538;BME280;18147;51.952;6.146;2023-11-18T01:56:49;102384.09;;;4.72;100.00
31538;BME280;18147;51.952;6.146;2023-11-18T01:59:16;102381.47;;;4.72;100.00
31538;BME280;18147;51.952;6.146;2023-11-18T02:01:49;102384.91;;;4.77;100.00
31538;BME280;18147;51.952;6.146;2023-11-18T02:04:15;102389.28;;;4.78;100.00
31538;BME280;18147;51.952;6.146;2023-11-18T02:06:42;102389.22;;;4.83;100.00
31538;BME280;18147;51.952;6.146;2023-11-18T02:09:16;102377.81;;;4.79;100.00
31538;BME280;18147;51.952;6.146;2023-11-18T02:11:53;102377.78;;;4.81;100.00
31538;BME280;18147;51.952;6.146;2023-11-18T02:14:25;102367.22;;;4.82;100.00
31538;BME280;18147;51.952;6.146;2023-11-18T02:16:52;102375.03;;;4.88;100.00
31538;BME280;18147;51.952;6.146;2023-11-18T02:19:24;102373.22;;;4.92;100.00
31538;BME280;18147;51.952;6.146;2023-11-18T02:21:51;102369.69;;;4.91;100.00
31538;BME280;18147;51.952;6.146;2023-11-18T02:24:30;102371.44;;;4.94;100.00
31538;BME280;18147;51.952;6.146;2023-11-18T02:26:59;102373.13;;;4.97;100.00
31538;BME280;18147;51.952;6.146;2023-11-18T02:29:27;102373.13;;;4.98;100.00
31538;BME280;18147;51.952;6.146;2023-11-18T02:32:03;102380.31;;;4.87;100.00
31538;BME280;18147;51.952;6.146;2023-11-18T02:34:38;102381.22;;;4.87;100.00
31538;BME280;18147;51.952;6.146;2023-11-18T02:37:07;102389.00;;;4.98;100.00
31538;BME280;18147;51.952;6.146;2023-11-18T02:39:42;102386.44;;;4.90;100.00
31538;BME280;18147;51.952;6.146;2023-11-18T02:42:10;102381.06;;;4.98;100.00
31538;BME280;18147;51.952;6.146;2023-11-18T02:44:38;102382.84;;;4.98;100.00
31538;BME280;18147;51.952;6.146;2023-11-18T02:47:07;102381.00;;;5.01;100.00
31538;BME280;18147;51.952;6.146;2023-11-18T02:49:35;102388.06;;;5.01;100.00
31538;BME280;18147;51.952;6.146;2023-11-18T02:52:01;102381.91;;;5.00;100.00
31538;BME280;18147;51.952;6.146;2023-11-18T02:54:27;102373.13;;;4.98;100.00
31538;BME280;18147;51.952;6.146;2023-11-18T02:56:53;102366.91;;;5.02;100.00
31538;BME280;18147;51.952;6.146;2023-11-18T02:59:21;102371.31;;;5.00;100.00
31538;BME280;18147;51.952;6.146;2023-11-18T03:01:53;102373.97;;;5.00;100.00
31538;BME280;18147;51.952;6.146;2023-11-18T03:04:19;102368.94;;;4.82;100.00
31538;BME280;18147;51.952;6.146;2023-11-18T03:06:49;102358.38;;;4.82;100.00
31538;BME280;18147;51.952;6.146;2023-11-18T03:09:16;102355.75;;;4.82;100.00
31538;BME280;18147;51.952;6.146;2023-11-18T03:11:42;102353.13;;;4.80;100.00
31538;BME280;18147;51.952;6.146;2023-11-18T03:14:09;102357.50;;;4.81;100.00
31538;BME280;18147;51.952;6.146;2023-11-18T03:16:37;102360.22;;;4.78;100.00
31538;BME280;18147;51.952;6.146;2023-11-18T03:19:03;102360.97;;;4.88;100.00
31538;BME280;18147;51.952;6.146;2023-11-18T03:21:30;102352.97;;;4.91;100.00
31538;BME280;18147;51.952;6.146;2023-11-18T03:23:58;102353.88;;;4.90;100.00
31538;BME280;18147;51.952;6.146;2023-11-18T03:26:24;102345.13;;;4.85;100.00
31538;BME280;18147;51.952;6.146;2023-11-18T03:28:54;102339.78;;;4.89;100.00
31538;BME280;18147;51.952;6.146;2023-11-18T03:31:19;102350.41;;;4.85;100.00
31538;BME280;18147;51.952;6.146;2023-11-18T03:33:45;102361.91;;;4.84;100.00
31538;BME280;18147;51.952;6.146;2023-11-18T03:36:11;102358.25;;;4.91;100.00
31538;BME280;18147;51.952;6.146;2023-11-18T03:38:37;102363.53;;;4.92;100.00
31538;BME280;18147;51.952;6.146;2023-11-18T03:41:03;102361.75;;;4.93;100.00
31538;BME280;18147;51.952;6.146;2023-11-18T03:43:29;102370.41;;;5.03;100.00
31538;BME280;18147;51.952;6.146;2023-11-18T03:45:55;102369.44;;;5.08;100.00
31538;BME280;18147;51.952;6.146;2023-11-18T03:48:23;102368.53;;;5.09;100.00
31538;BME280;18147;51.952;6.146;2023-11-18T03:50:48;102362.31;;;5.12;100.00
31538;BME280;18147;51.952;6.146;2023-11-18T03:53:14;102354.41;;;5.10;100.00
31538;BME280;18147;51.952;6.146;2023-11-18T03:55:43;102359.63;;;5.15;100.00
31538;BME280;18147;51.952;6.146;2023-11-18T03:58:16;102357.81;;;5.17;100.00
31538;BME280;18147;51.952;6.146;2023-11-18T04:00:42;102351.56;;;5.24;100.00
31538;BME280;18147;51.952;6.146;2023-11-18T04:03:08;102345.50;;;5.17;100.00
31538;BME280;18147;51.952;6.146;2023-11-18T04:05:35;102336.66;;;5.17;100.00
31538;BME280;18147;51.952;6.146;2023-11-18T04:08:03;102334.88;;;5.19;100.00
31538;BME280;18147;51.952;6.146;2023-11-18T04:10:29;102321.59;;;5.24;100.00
31538;BME280;18147;51.952;6.146;2023-11-18T04:12:54;102317.97;;;5.29;100.00
31538;BME280;18147;51.952;6.146;2023-11-18T04:15:21;102309.09;;;5.33;100.00
31538;BME280;18147;51.952;6.146;2023-11-18T04:17:46;102303.75;;;5.35;100.00
31538;BME280;18147;51.952;6.146;2023-11-18T04:20:12;102299.34;;;5.35;100.00
31538;BME280;18147;51.952;6.146;2023-11-18T04:22:39;102293.13;;;5.36;100.00
31538;BME280;18147;51.952;6.146;2023-11-18T04:25:07;102292.25;;;5.37;100.00
31538;BME280;18147;51.952;6.146;2023-11-18T04:27:33;102277.22;;;5.39;100.00
31538;BME280;18147;51.952;6.146;2023-11-18T04:29:59;102279.91;;;5.38;100.00
31538;BME280;18147;51.952;6.146;2023-11-18T04:32:24;102282.47;;;5.42;100.00
31538;BME280;18147;51.952;6.146;2023-11-18T04:34:50;102276.19;;;5.46;100.00
31538;BME280;18147;51.952;6.146;2023-11-18T04:37:16;102282.44;;;5.44;100.00
31538;BME280;18147;51.952;6.146;2023-11-18T04:39:43;102280.63;;;5.46;100.00
31538;BME280;18147;51.952;6.146;2023-11-18T04:42:09;102270.19;;;5.37;100.00
31538;BME280;18147;51.952;6.146;2023-11-18T04:44:35;102258.63;;;5.44;100.00
31538;BME280;18147;51.952;6.146;2023-11-18T04:47:01;102260.31;;;5.48;100.00
31538;BME280;18147;51.952;6.146;2023-11-18T04:49:27;102251.59;;;5.43;100.00
31538;BME280;18147;51.952;6.146;2023-11-18T04:51:52;102254.34;;;5.37;100.00
31538;BME280;18147;51.952;6.146;2023-11-18T04:54:18;102248.09;;;5.42;100.00
31538;BME280;18147;51.952;6.146;2023-11-18T04:56:44;102243.00;;;5.30;100.00
31538;BME280;18147;51.952;6.146;2023-11-18T04:59:10;102236.81;;;5.31;100.00
31538;BME280;18147;51.952;6.146;2023-11-18T05:01:36;102238.53;;;5.34;100.00
31538;BME280;18147;51.952;6.146;2023-11-18T05:04:06;102236.72;;;5.36;100.00
31538;BME280;18147;51.952;6.146;2023-11-18T05:06:33;102238.50;;;5.35;100.00
31538;BME280;18147;51.952;6.146;2023-11-18T05:08:59;102239.50;;;5.30;100.00
31538;BME280;18147;51.952;6.146;2023-11-18T05:11:24;102242.97;;;5.32;100.00
31538;BME280;18147;51.952;6.146;2023-11-18T05:13:50;102246.59;;;5.26;100.00
31538;BME280;18147;51.952;6.146;2023-11-18T05:16:16;102236.03;;;5.28;100.00
31538;BME280;18147;51.952;6.146;2023-11-18T05:18:44;102241.31;;;5.26;100.00
31538;BME280;18147;51.952;6.146;2023-11-18T05:21:10;102237.97;;;5.18;100.00
31538;BME280;18147;51.952;6.146;2023-11-18T05:23:36;102239.66;;;5.20;100.00
31538;BME280;18147;51.952;6.146;2023-11-18T05:26:02;102254.63;;;5.23;100.00
31538;BME280;18147;51.952;6.146;2023-11-18T05:28:31;102239.66;;;5.20;100.00
31538;BME280;18147;51.952;6.146;2023-11-18T05:30:57;102246.75;;;5.18;100.00
31538;BME280;18147;51.952;6.146;2023-11-18T05:33:27;102251.03;;;5.27;100.00
31538;BME280;18147;51.952;6.146;2023-11-18T05:35:57;102251.97;;;5.23;100.00
31538;BME280;18147;51.952;6.146;2023-11-18T05:38:22;102247.59;;;5.20;100.00
31538;BME280;18147;51.952;6.146;2023-11-18T05:40:49;102236.09;;;5.22;100.00
31538;BME280;18147;51.952;6.146;2023-11-18T05:43:25;102228.16;;;5.23;100.00
31538;BME280;18147;51.952;6.146;2023-11-18T05:45:58;102220.38;;;5.15;100.00
31538;BME280;18147;51.952;6.146;2023-11-18T05:48:44;102217.81;;;5.12;100.00
31538;BME280;18147;51.952;6.146;2023-11-18T05:51:11;102225.59;;;5.18;100.00
31538;BME280;18147;51.952;6.146;2023-11-18T05:53:43;102219.28;;;5.26;100.00
31538;BME280;18147;51.952;6.146;2023-11-18T05:56:14;102220.25;;;5.22;100.00
31538;BME280;18147;51.952;6.146;2023-11-18T05:58:42;102216.00;;;5.14;100.00
31538;BME280;18147;51.952;6.146;2023-11-18T06:01:12;102205.38;;;5.16;100.00
31538;BME280;18147;51.952;6.146;2023-11-18T06:03:47;102199.09;;;5.22;100.00
31538;BME280;18147;51.952;6.146;2023-11-18T06:06:14;102196.44;;;5.23;100.00
31538;BME280;18147;51.952;6.146;2023-11-18T06:08:49;102190.19;;;5.27;100.00
31538;BME280;18147;51.952;6.146;2023-11-18T06:11:15;102186.66;;;5.27;100.00
31538;BME280;18147;51.952;6.146;2023-11-18T06:13:52;102185.97;;;5.17;100.00
31538;BME280;18147;51.952;6.146;2023-11-18T06:16:22;102197.28;;;5.25;100.00
31538;BME280;18147;51.952;6.146;2023-11-18T06:18:55;102201.66;;;5.28;100.00
31538;BME280;18147;51.952;6.146;2023-11-18T06:21:23;102208.81;;;5.21;100.00
31538;BME280;18147;51.952;6.146;2023-11-18T06:23:51;102203.50;;;5.21;100.00
31538;BME280;18147;51.952;6.146;2023-11-18T06:26:16;102209.88;;;5.11;100.00
31538;BME280;18147;51.952;6.146;2023-11-18T06:28:44;102200.00;;;5.20;100.00
31538;BME280;18147;51.952;6.146;2023-11-18T06:31:11;102189.34;;;5.25;100.00
31538;BME280;18147;51.952;6.146;2023-11-18T06:33:46;102191.16;;;5.23;100.00
31538;BME280;18147;51.952;6.146;2023-11-18T06:38:49;102200.00;;;5.20;100.00
31538;BME280;18147;51.952;6.146;2023-11-18T06:41:16;102199.09;;;5.22;100.00
31538;BME280;18147;51.952;6.146;2023-11-18T06:43:46;102209.66;;;5.22;100.00
31538;BME280;18147;51.952;6.146;2023-11-18T06:46:26;102210.75;;;5.13;100.00
31538;BME280;18147;51.952;6.146;2023-11-18T06:48:53;102205.25;;;5.24;100.00
31538;BME280;18147;51.952;6.146;2023-11-18T06:51:29;102218.66;;;5.13;100.00
31538;BME280;18147;51.952;6.146;2023-11-18T06:53:58;102214.81;;;5.29;100.00
31538;BME280;18147;51.952;6.146;2023-11-18T06:56:25;102205.25;;;5.24;100.00
31538;BME280;18147;51.952;6.146;2023-11-18T06:58:51;102204.38;;;5.23;100.00
31538;BME280;18147;51.952;6.146;2023-11-18T07:01:18;102200.88;;;5.23;100.00
31538;BME280;18147;51.952;6.146;2023-11-18T07:03:47;102201.72;;;5.23;100.00
31538;BME280;18147;51.952;6.146;2023-11-18T07:06:20;102207.06;;;5.20;100.00
31538;BME280;18147;51.952;6.146;2023-11-18T07:08:48;102210.56;;;5.22;100.00
31538;BME280;18147;51.952;6.146;2023-11-18T07:11:20;102215.78;;;5.25;100.00
31538;BME280;18147;51.952;6.146;2023-11-18T07:13:49;102221.81;;;5.32;100.00
31538;BME280;18147;51.952;6.146;2023-11-18T07:16:15;102208.66;;;5.29;100.00
31538;BME280;18147;51.952;6.146;2023-11-18T07:18:41;102206.91;;;5.29;100.00
31538;BME280;18147;51.952;6.146;2023-11-18T07:21:10;102197.91;;;5.38;100.00
31538;BME280;18147;51.952;6.146;2023-11-18T07:23:36;102187.44;;;5.32;100.00
31538;BME280;18147;51.952;6.146;2023-11-18T07:26:02;102182.31;;;5.24;100.00
31538;BME280;18147;51.952;6.146;2023-11-18T07:28:31;102194.41;;;5.36;100.00
31538;BME280;18147;51.952;6.146;2023-11-18T07:30:57;102189.25;;;5.30;100.00
31538;BME280;18147;51.952;6.146;2023-11-18T07:33:23;102177.66;;;5.35;100.00
31538;BME280;18147;51.952;6.146;2023-11-18T07:35:49;102179.09;;;5.08;100.00
31538;BME280;18147;51.952;6.146;2023-11-18T07:38:15;102184.81;;;5.30;100.00
31538;BME280;18147;51.952;6.146;2023-11-18T07:40:41;102184.69;;;5.38;100.00
31538;BME280;18147;51.952;6.146;2023-11-18T07:43:18;102182.88;;;5.40;100.00
31538;BME280;18147;51.952;6.146;2023-11-18T07:45:48;102196.91;;;5.43;100.00
31538;BME280;18147;51.952;6.146;2023-11-18T07:48:18;102195.88;;;5.51;100.00
31538;BME280;18147;51.952;6.146;2023-11-18T07:50:52;102196.69;;;5.54;100.00
31538;BME280;18147;51.952;6.146;2023-11-18T07:53:18;102195.09;;;5.45;100.00
31538;BME280;18147;51.952;6.146;2023-11-18T07:55:44;102194.09;;;5.51;100.00
31538;BME280;18147;51.952;6.146;2023-11-18T07:58:10;102205.53;;;5.53;100.00
31538;BME280;18147;51.952;6.146;2023-11-18T08:00:43;102206.28;;;5.60;100.00
31538;BME280;18147;51.952;6.146;2023-11-18T08:03:19;102194.88;;;5.58;100.00
31538;BME280;18147;51.952;6.146;2023-11-18T08:05:45;102194.03;;;5.54;100.00
31538;BME280;18147;51.952;6.146;2023-11-18T08:08:12;102182.41;;;5.61;100.00
31538;BME280;18147;51.952;6.146;2023-11-18T08:10:39;102180.63;;;5.62;100.00
31538;BME280;18147;51.952;6.146;2023-11-18T08:13:06;102179.69;;;5.66;100.00
31538;BME280;18147;51.952;6.146;2023-11-18T08:15:43;102185.91;;;5.63;100.00
31538;BME280;18147;51.952;6.146;2023-11-18T08:18:12;102182.31;;;5.67;100.00
31538;BME280;18147;51.952;6.146;2023-11-18T08:20:38;102182.28;;;5.69;100.00
31538;BME280;18147;51.952;6.146;2023-11-18T08:23:06;102173.47;;;5.67;100.00
31538;BME280;18147;51.952;6.146;2023-11-18T08:25:32;102162.84;;;5.70;100.00
31538;BME280;18147;51.952;6.146;2023-11-18T08:27:59;102156.50;;;5.77;100.00
31538;BME280;18147;51.952;6.146;2023-11-18T08:30:26;102156.09;;;5.55;100.00
31538;BME280;18147;51.952;6.146;2023-11-18T08:32:52;102149.59;;;5.70;100.00
31538;BME280;18147;51.952;6.146;2023-11-18T08:35:18;102157.53;;;5.70;100.00
31538;BME280;18147;51.952;6.146;2023-11-18T08:37:49;102149.44;;;5.78;100.00
31538;BME280;18147;51.952;6.146;2023-11-18T08:40:16;102146.03;;;5.71;100.00
31538;BME280;18147;51.952;6.146;2023-11-18T08:42:48;102142.38;;;5.77;100.00
31538;BME280;18147;51.952;6.146;2023-11-18T08:45:19;102134.63;;;5.69;100.00
31538;BME280;18147;51.952;6.146;2023-11-18T08:47:47;102127.56;;;5.69;100.00
31538;BME280;18147;51.952;6.146;2023-11-18T08:50:16;102116.13;;;5.69;100.00
31538;BME280;18147;51.952;6.146;2023-11-18T08:52:43;102109.84;;;5.73;100.00
31538;BME280;18147;51.952;6.146;2023-11-18T08:55:13;102111.47;;;5.79;100.00
31538;BME280;18147;51.952;6.146;2023-11-18T08:57:57;102103.44;;;5.82;100.00
31538;BME280;18147;51.952;6.146;2023-11-18T09:00:31;102106.78;;;5.91;100.00
31538;BME280;18147;51.952;6.146;2023-11-18T09:03:17;102104.78;;;6.03;100.00
31538;BME280;18147;51.952;6.146;2023-11-18T09:05:54;102108.47;;;5.95;100.00
31538;BME280;18147;51.952;6.146;2023-11-18T09:08:34;102109.97;;;6.06;100.00
31538;BME280;18147;51.952;6.146;2023-11-18T09:11:02;102104.88;;;5.98;100.00
31538;BME280;18147;51.952;6.146;2023-11-18T09:13:30;102089.59;;;6.09;100.00
31538;BME280;18147;51.952;6.146;2023-11-18T09:16:06;102092.09;;;6.15;100.00
31538;BME280;18147;51.952;6.146;2023-11-18T09:18:37;102088.25;;;6.29;100.00
31538;BME280;18147;51.952;6.146;2023-11-18T09:21:06;102083.56;;;6.38;100.00
31538;BME280;18147;51.952;6.146;2023-11-18T09:23:33;102068.84;;;6.27;100.00
31538;BME280;18147;51.952;6.146;2023-11-18T09:26:03;102076.38;;;6.43;100.00
31538;BME280;18147;51.952;6.146;2023-11-18T09:28:33;102064.91;;;6.43;100.00
31538;BME280;18147;51.952;6.146;2023-11-18T09:31:01;102066.28;;;6.58;100.00
31538;BME280;18147;51.952;6.146;2023-11-18T09:33:29;102061.88;;;6.57;100.00
31538;BME280;18147;51.952;6.146;2023-11-18T09:36:03;102045.84;;;6.61;100.00
31538;BME280;18147;51.952;6.146;2023-11-18T09:38:37;102033.56;;;6.59;100.00
31538;BME280;18147;51.952;6.146;2023-11-18T09:41:04;102028.03;;;6.66;100.00
31538;BME280;18147;51.952;6.146;2023-11-18T09:43:40;102034.25;;;6.65;100.00
31538;BME280;18147;51.952;6.146;2023-11-18T09:46:15;102043.94;;;6.66;100.00
31538;BME280;18147;51.952;6.146;2023-11-18T09:48:45;102041.28;;;6.66;100.00
31538;BME280;18147;51.952;6.146;2023-11-18T09:51:23;102040.38;;;6.67;100.00
31538;BME280;18147;51.952;6.146;2023-11-18T09:53:54;102040.25;;;6.72;100.00
31538;BME280;18147;51.952;6.146;2023-11-18T09:56:31;102022.72;;;6.68;100.00
31538;BME280;18147;51.952;6.146;2023-11-18T09:59:32;102014.53;;;6.75;100.00
31538;BME280;18147;51.952;6.146;2023-11-18T10:02:02;102008.53;;;6.69;100.00
31538;BME280;18147;51.952;6.146;2023-11-18T10:04:30;102013.59;;;6.77;100.00
31538;BME280;18147;51.952;6.146;2023-11-18T10:06:57;101998.41;;;6.83;100.00
31538;BME280;18147;51.952;6.146;2023-11-18T10:09:23;101994.38;;;6.70;100.00
31538;BME280;18147;51.952;6.146;2023-11-18T10:12:08;101984.50;;;6.75;100.00
31538;BME280;18147;51.952;6.146;2023-11-18T10:14:41;101977.50;;;6.72;100.00
31538;BME280;18147;51.952;6.146;2023-11-18T10:17:16;101976.22;;;6.86;100.00
31538;BME280;18147;51.952;6.146;2023-11-18T10:19:50;101963.22;;;6.78;100.00
31538;BME280;18147;51.952;6.146;2023-11-18T10:22:29;101960.09;;;6.64;100.00
31538;BME280;18147;51.952;6.146;2023-11-18T10:24:56;101951.59;;;6.82;100.00
31538;BME280;18147;51.952;6.146;2023-11-18T10:27:26;101936.66;;;6.80;100.00
31538;BME280;18147;51.952;6.146;2023-11-18T10:30:01;101941.63;;;6.90;100.00
31538;BME280;18147;51.952;6.146;2023-11-18T10:32:30;101945.56;;;6.77;100.00
31538;BME280;18147;51.952;6.146;2023-11-18T10:35:01;101942.69;;;6.85;100.00
31538;BME280;18147;51.952;6.146;2023-11-18T10:37:27;101949.38;;;6.96;100.00
31538;BME280;18147;51.952;6.146;2023-11-18T10:39:56;101954.41;;;7.06;100.00
31538;BME280;18147;51.952;6.146;2023-11-18T10:42:29;101955.34;;;7.05;100.00
31538;BME280;18147;51.952;6.146;2023-11-18T10:44:59;101955.47;;;7.00;100.00
31538;BME280;18147;51.952;6.146;2023-11-18T10:47:28;101956.88;;;6.84;100.00
31538;BME280;18147;51.952;6.146;2023-11-18T10:49:57;101968.53;;;6.78;100.00
31538;BME280;18147;51.952;6.146;2023-11-18T10:52:26;101974.69;;;6.79;100.00
31538;BME280;18147;51.952;6.146;2023-11-18T10:54:56;101963.75;;;6.60;100.00
31538;BME280;18147;51.952;6.146;2023-11-18T10:57:22;101978.28;;;6.76;100.00
31538;BME280;18147;51.952;6.146;2023-11-18T11:00:05;101985.19;;;6.82;100.00
31538;BME280;18147;51.952;6.146;2023-11-18T11:02:42;101969.47;;;6.75;100.00
31538;BME280;18147;51.952;6.146;2023-11-18T11:05:08;101959.97;;;6.68;100.00
31538;BME280;18147;51.952;6.146;2023-11-18T11:07:42;101964.84;;;6.82;100.00
31538;BME280;18147;51.952;6.146;2023-11-18T11:10:08;101966.41;;;6.89;100.00
31538;BME280;18147;51.952;6.146;2023-11-18T11:12:43;101959.47;;;6.85;100.00
31538;BME280;18147;51.952;6.146;2023-11-18T11:15:30;101958.22;;;6.97;100.00
31538;BME280;18147;51.952;6.146;2023-11-18T11:18:08;101965.09;;;7.03;100.00
31538;BME280;18147;51.952;6.146;2023-11-18T11:20:53;101958.81;;;7.07;100.00
31538;BME280;18147;51.952;6.146;2023-11-18T11:23:30;101952.97;;;6.95;100.00
31538;BME280;18147;51.952;6.146;2023-11-18T11:26:16;101950.13;;;7.01;100.00
31538;BME280;18147;51.952;6.146;2023-11-18T11:31:49;101934.69;;;6.86;100.00
31538;BME280;18147;51.952;6.146;2023-11-18T11:34:20;101923.84;;;6.94;100.00
31538;BME280;18147;51.952;6.146;2023-11-18T11:36:52;101911.88;;;6.81;100.00
31538;BME280;18147;51.952;6.146;2023-11-18T11:39:21;101910.94;;;6.83;100.00
31538;BME280;18147;51.952;6.146;2023-11-18T11:41:58;101900.47;;;6.79;100.00
31538;BME280;18147;51.952;6.146;2023-11-18T11:44:24;101906.44;;;6.85;100.00
31538;BME280;18147;51.952;6.146;2023-11-18T11:46:59;101914.16;;;6.93;100.00
31538;BME280;18147;51.952;6.146;2023-11-18T11:49:27;101912.47;;;6.90;100.00
31538;BME280;18147;51.952;6.146;2023-11-18T11:52:07;101893.72;;;6.96;100.00
31538;BME280;18147;51.952;6.146;2023-11-18T11:55:09;101868.84;;;7.00;100.00
31538;BME280;18147;51.952;6.146;2023-11-18T11:57:39;101852.41;;;6.89;100.00
31538;BME280;18147;51.952;6.146;2023-11-18T12:00:11;101843.69;;;6.58;100.00
31538;BME280;18147;51.952;6.146;2023-11-18T12:02:47;101843.81;;;6.81;100.00
31538;BME280;18147;51.952;6.146;2023-11-18T12:05:23;101834.94;;;6.82;100.00
31538;BME280;18147;51.952;6.146;2023-11-18T12:07:52;101832.94;;;6.90;100.00
31538;BME280;18147;51.952;6.146;2023-11-18T12:10:20;101831.72;;;7.00;100.00
31538;BME280;18147;51.952;6.146;2023-11-18T12:13:06;101822.22;;;6.93;100.00
31538;BME280;18147;51.952;6.146;2023-11-18T12:15:55;101826.91;;;6.85;100.00
31538;BME280;18147;51.952;6.146;2023-11-18T12:18:29;101814.94;;;7.00;100.00
31538;BME280;18147;51.952;6.146;2023-11-18T12:20:57;101824.06;;;6.91;100.00
31538;BME280;18147;51.952;6.146;2023-11-18T12:23:27;101818.53;;;6.97;100.00
31538;BME280;18147;51.952;6.146;2023-11-18T12:25:54;101819.88;;;7.11;100.00
31538;BME280;18147;51.952;6.146;2023-11-18T12:28:25;101797.66;;;6.88;100.00
31538;BME280;18147;51.952;6.146;2023-11-18T12:31:02;101795.72;;;6.93;100.00
31538;BME280;18147;51.952;6.146;2023-11-18T12:40:06;101782.97;;;7.05;100.00
31538;BME280;18147;51.952;6.146;2023-11-18T12:42:08;101785.09;;;7.20;100.00
31538;BME280;18147;51.952;6.146;2023-11-18T12:45:20;101762.63;;;7.05;100.00
31538;BME280;18147;51.952;6.146;2023-11-18T12:47:55;101758.09;;;7.09;100.00
31538;BME280;18147;51.952;6.146;2023-11-18T12:50:22;101733.44;;;7.30;100.00
31538;BME280;18147;51.952;6.146;2023-11-18T12:52:53;101714.78;;;7.08;100.00
31538;BME280;18147;51.952;6.146;2023-11-18T12:55:20;101725.22;;;7.13;100.00
31538;BME280;18147;51.952;6.146;2023-11-18T12:57:46;101713.97;;;7.31;100.00
31538;BME280;18147;51.952;6.146;2023-11-18T13:00:16;101712.94;;;7.35;100.00
31538;BME280;18147;51.952;6.146;2023-11-18T13:02:55;101692.56;;;7.36;100.00
31538;BME280;18147;51.952;6.146;2023-11-18T13:05:23;101683.84;;;7.32;100.00
31538;BME280;18147;51.952;6.146;2023-11-18T13:07:55;101663.69;;;7.28;100.00
31538;BME280;18147;51.952;6.146;2023-11-18T13:10:22;101653.69;;;7.35;100.00
31538;BME280;18147;51.952;6.146;2023-11-18T13:12:47;101642.84;;;7.41;100.00
31538;BME280;18147;51.952;6.146;2023-11-18T13:15:16;101642.41;;;7.30;100.00